createdAt,value
2018-11-28T00:00:21.746Z,17.37
2018-11-28T00:02:50.655Z,17.90
2018-11-28T00:05:19.428Z,18.07
2018-11-28T00:07:48.054Z,17.63
2018-11-28T00:10:16.921Z,16.27
2018-11-28T00:12:45.989Z,17.70
2018-11-28T00:15:15.342Z,17.77
2018-11-28T00:17:44.166Z,18.63
2018-11-28T00:20:16.237Z,18.07
2018-11-28T00:22:45.280Z,17.57
2018-11-28T00:25:14.650Z,18.53
2018-11-28T00:27:43.417Z,17.97
2018-11-28T00:30:22.774Z,17.40
2018-11-28T00:32:51.474Z,17.00
2018-11-28T00:35:21.157Z,17.67
2018-11-28T00:37:49.804Z,16.07
2018-11-28T00:40:19.743Z,16.83
2018-11-28T00:42:48.475Z,16.63
2018-11-28T00:45:19.601Z,17.37
2018-11-28T00:47:48.303Z,16.27
2018-11-28T00:50:21.003Z,17.10
2018-11-28T00:52:49.676Z,16.80
2018-11-28T00:55:18.672Z,16.90
2018-11-28T00:57:47.351Z,17.03
2018-11-28T01:00:19.451Z,16.80
2018-11-28T01:02:48.591Z,16.40
2018-11-28T01:05:17.309Z,16.93
2018-11-28T01:07:46.728Z,15.83
2018-11-28T01:10:18.547Z,16.47
2018-11-28T01:12:47.511Z,15.93
2018-11-28T01:15:17.049Z,15.87
2018-11-28T01:17:45.637Z,16.60
2018-11-28T01:20:15.388Z,18.10
2018-11-28T01:22:44.052Z,16.13
2018-11-28T01:25:15.428Z,17.30
2018-11-28T01:27:44.072Z,16.13
2018-11-28T01:30:21.323Z,17.83
2018-11-28T01:32:50.006Z,17.03
2018-11-28T01:35:19.837Z,16.63
2018-11-28T01:37:48.471Z,17.87
2018-11-28T01:40:21.387Z,17.13
2018-11-28T01:42:50.019Z,17.43
2018-11-28T01:45:19.684Z,17.33
2018-11-28T01:47:48.380Z,16.63
2018-11-28T01:50:17.824Z,16.37
2018-11-28T01:52:46.542Z,17.10
2018-11-28T01:55:19.198Z,17.37
2018-11-28T01:57:47.917Z,16.77
2018-11-28T02:00:18.590Z,17.93
2018-11-28T02:02:48.114Z,17.67
2018-11-28T02:05:16.720Z,17.40
2018-11-28T02:07:45.364Z,16.87
2018-11-28T02:10:15.514Z,17.70
2018-11-28T02:12:44.123Z,17.37
2018-11-28T02:15:15.770Z,18.40
2018-11-28T02:18:15.259Z,17.50
2018-11-28T02:20:43.851Z,18.03
2018-11-28T02:23:12.379Z,16.23
2018-11-28T02:25:41.105Z,17.27
2018-11-28T02:28:09.747Z,18.60
2018-11-28T02:30:38.443Z,17.57
2018-11-28T02:33:07.035Z,17.50
2018-11-28T02:35:35.724Z,17.63
2018-11-28T02:38:04.362Z,17.00
2018-11-28T02:40:32.935Z,18.23
2018-11-28T02:43:01.536Z,19.13
2018-11-28T02:45:30.156Z,18.97
2018-11-28T02:47:58.768Z,17.90
2018-11-28T02:50:27.385Z,17.43
2018-11-28T02:52:56.001Z,17.37
2018-11-28T02:55:24.731Z,16.30
2018-11-28T02:57:53.279Z,16.77
2018-11-28T03:00:23.105Z,14.90
2018-11-28T03:02:51.740Z,16.03
2018-11-28T03:05:20.490Z,15.50
2018-11-28T03:07:49.073Z,16.77
2018-11-28T03:10:19.075Z,17.83
2018-11-28T03:12:47.771Z,17.23
2018-11-28T03:15:48.886Z,16.27
2018-11-28T03:18:17.837Z,16.93
2018-11-28T03:20:46.464Z,18.10
2018-11-28T03:23:15.085Z,17.43
2018-11-28T03:25:43.671Z,18.07
2018-11-28T03:28:12.249Z,18.17
2018-11-28T03:30:40.849Z,17.23
2018-11-28T03:33:09.448Z,17.90
2018-11-28T03:35:38.072Z,19.83
2018-11-28T03:38:06.867Z,18.80
2018-11-28T03:40:35.497Z,19.73
2018-11-28T03:43:04.173Z,18.63
2018-11-28T03:45:32.864Z,19.40
2018-11-28T03:48:01.456Z,18.03
2018-11-28T03:50:30.139Z,18.90
2018-11-28T03:52:58.730Z,18.67
2018-11-28T03:55:27.330Z,18.77
2018-11-28T03:57:55.915Z,19.40
2018-11-28T04:00:24.552Z,20.87
2018-11-28T04:02:53.156Z,19.57
2018-11-28T04:05:21.781Z,19.43
2018-11-28T04:07:50.428Z,18.70
2018-11-28T04:10:18.995Z,20.80
2018-11-28T04:12:47.588Z,18.97
2018-11-28T04:15:18.066Z,19.47
2018-11-28T04:17:46.679Z,19.87
2018-11-28T04:20:19.875Z,18.83
2018-11-28T04:22:48.561Z,19.73
2018-11-28T04:25:18.274Z,19.37
2018-11-28T04:27:46.883Z,18.57
2018-11-28T04:30:17.756Z,19.53
2018-11-28T04:32:46.980Z,19.27
2018-11-28T04:35:15.844Z,19.27
2018-11-28T04:37:45.076Z,19.13
2018-11-28T04:40:15.560Z,18.37
2018-11-28T04:42:44.435Z,19.27
2018-11-28T04:45:22.620Z,19.17
2018-11-28T04:47:52.088Z,20.17
2018-11-28T04:50:20.687Z,18.27
2018-11-28T04:52:49.449Z,18.63
2018-11-28T04:55:18.796Z,19.50
2018-11-28T04:57:47.914Z,17.87
2018-11-28T05:00:19.606Z,20.03
2018-11-28T05:02:48.417Z,19.90
2018-11-28T05:05:17.074Z,23.97
2018-11-28T05:07:48.643Z,20.23
2018-11-28T05:10:26.863Z,18.20
2018-11-28T05:12:56.016Z,24.00
2018-11-28T05:15:27.371Z,18.13
2018-11-28T05:17:56.072Z,18.00
2018-11-28T05:20:27.776Z,18.77
2018-11-28T05:22:56.412Z,18.20
2018-11-28T05:25:26.378Z,17.37
2018-11-28T05:27:58.647Z,17.40
2018-11-28T05:30:28.463Z,17.13
2018-11-28T05:32:57.144Z,24.05
2018-11-28T05:35:29.475Z,20.10
2018-11-28T05:37:58.186Z,18.80
2018-11-28T05:40:27.647Z,18.33
2018-11-28T05:42:56.801Z,18.13
2018-11-28T05:45:25.485Z,17.77
2018-11-28T05:47:54.116Z,17.43
2018-11-28T05:50:23.120Z,18.13
2018-11-28T05:52:51.883Z,19.23
2018-11-28T05:55:22.628Z,19.03
2018-11-28T05:57:51.228Z,19.00
2018-11-28T06:00:28.465Z,19.70
2018-11-28T06:02:57.104Z,22.17
2018-11-28T06:05:25.821Z,18.73
2018-11-28T06:07:54.598Z,19.73
2018-11-28T06:10:23.231Z,18.77
2018-11-28T06:12:51.802Z,20.10
2018-11-28T06:15:20.507Z,19.43
2018-11-28T06:17:49.154Z,18.67
2018-11-28T06:20:18.092Z,18.67
2018-11-28T06:22:46.854Z,18.17
2018-11-28T06:25:17.491Z,17.07
2018-11-28T06:27:46.462Z,18.43
2018-11-28T06:30:16.459Z,17.53
2018-11-28T06:32:51.020Z,20.35
2018-11-28T06:35:14.392Z,20.25
2018-11-28T06:37:43.252Z,17.83
2018-11-28T06:40:15.871Z,22.07
2018-11-28T06:42:45.498Z,17.50
2018-11-28T06:45:17.041Z,17.97
2018-11-28T06:47:45.673Z,17.07
2018-11-28T06:50:16.350Z,16.80
2018-11-28T06:52:46.325Z,17.73
2018-11-28T06:55:16.069Z,17.10
2018-11-28T06:57:44.707Z,17.27
2018-11-28T07:00:14.722Z,17.53
2018-11-28T07:02:43.326Z,18.27
2018-11-28T07:05:12.566Z,16.73
2018-11-28T07:07:41.357Z,18.20
2018-11-28T07:10:13.551Z,17.83
2018-11-28T07:12:42.147Z,17.83
2018-11-28T07:15:12.164Z,18.63
2018-11-28T07:17:41.425Z,17.77
2018-11-28T07:20:12.120Z,16.00
2018-11-28T07:22:40.756Z,17.10
2018-11-28T07:25:14.571Z,16.13
2018-11-28T07:27:45.454Z,16.87
2018-11-28T07:30:15.794Z,18.00
2018-11-28T07:32:44.650Z,16.67
2018-11-28T07:35:16.711Z,17.77
2018-11-28T07:37:46.022Z,17.87
2018-11-28T07:40:18.181Z,15.03
2018-11-28T07:42:50.039Z,17.23
2018-11-28T07:45:21.702Z,17.07
2018-11-28T07:47:50.366Z,17.43
2018-11-28T07:50:19.241Z,17.07
2018-11-28T07:52:47.812Z,17.07
2018-11-28T07:55:16.508Z,17.70
2018-11-28T07:57:45.016Z,16.10
2018-11-28T08:00:15.546Z,17.00
2018-11-28T08:02:44.770Z,16.93
2018-11-28T08:05:15.835Z,17.93
2018-11-28T08:07:44.522Z,17.47
2018-11-28T08:10:25.045Z,18.53
2018-11-28T08:12:55.415Z,16.37
2018-11-28T08:15:26.077Z,16.83
2018-11-28T08:17:54.745Z,18.90
2018-11-28T08:20:23.950Z,17.57
2018-11-28T08:22:53.331Z,18.87
2018-11-28T08:25:27.522Z,18.37
2018-11-28T08:27:51.486Z,18.53
2018-11-28T08:30:26.148Z,21.77
2018-11-28T08:32:56.105Z,19.00
2018-11-28T08:35:25.582Z,18.87
2018-11-28T08:37:55.088Z,18.40
2018-11-28T08:40:25.802Z,18.23
2018-11-28T08:42:56.012Z,18.47
2018-11-28T08:45:25.109Z,18.17
2018-11-28T08:47:56.098Z,18.50
2018-11-28T08:50:29.514Z,18.93
2018-11-28T08:53:00.991Z,19.83
2018-11-28T08:55:31.152Z,18.57
2018-11-28T08:58:04.371Z,19.07
2018-11-28T09:00:37.156Z,17.57
2018-11-28T09:03:09.015Z,18.20
2018-11-28T09:05:48.218Z,18.40
2018-11-28T09:08:22.222Z,17.63
2018-11-28T09:10:52.049Z,17.67
2018-11-28T09:13:22.310Z,19.40
2018-11-28T09:15:51.694Z,18.53
2018-11-28T09:18:21.370Z,18.83
2018-11-28T09:20:50.935Z,18.80
2018-11-28T09:23:20.491Z,18.33
2018-11-28T09:25:49.953Z,17.50
2018-11-28T09:28:19.114Z,17.47
2018-11-28T09:30:48.373Z,18.50
2018-11-28T09:33:18.118Z,19.43
2018-11-28T09:35:48.047Z,18.93
2018-11-28T09:38:17.815Z,19.07
2018-11-28T09:40:47.166Z,18.70
2018-11-28T09:43:20.341Z,20.07
2018-11-28T09:45:49.960Z,18.90
2018-11-28T09:48:20.375Z,19.20
2018-11-28T09:50:49.889Z,18.97
2018-11-28T09:53:19.850Z,19.17
2018-11-28T09:55:48.778Z,20.50
2018-11-28T09:58:18.343Z,18.57
2018-11-28T10:00:47.574Z,19.50
2018-11-28T10:03:17.118Z,19.97
2018-11-28T10:05:47.275Z,20.67
2018-11-28T10:08:16.096Z,18.93
2018-11-28T10:10:45.254Z,19.30
2018-11-28T10:13:14.102Z,19.83
2018-11-28T10:15:42.661Z,19.83
2018-11-28T10:18:11.384Z,18.70
2018-11-28T10:20:39.995Z,20.13
2018-11-28T10:23:08.842Z,19.57
2018-11-28T10:25:38.040Z,20.53
2018-11-28T10:28:08.238Z,19.70
2018-11-28T10:30:38.322Z,18.80
2018-11-28T10:33:10.027Z,20.10
2018-11-28T10:35:39.634Z,20.63
2018-11-28T10:38:09.132Z,20.10
2018-11-28T10:40:38.579Z,19.87
2018-11-28T10:43:08.889Z,20.07
2018-11-28T10:45:38.672Z,20.27
2018-11-28T10:48:08.823Z,20.33
2018-11-28T10:50:39.249Z,20.17
2018-11-28T10:53:08.086Z,19.80
2018-11-28T10:55:36.864Z,19.47
2018-11-28T10:58:07.436Z,20.03
2018-11-28T11:00:41.832Z,19.50
2018-11-28T11:03:16.486Z,20.90
2018-11-28T11:05:51.011Z,19.97
2018-11-28T11:08:25.146Z,20.60
2018-11-28T11:11:00.353Z,20.13
2018-11-28T11:13:37.432Z,20.47
2018-11-28T11:16:08.332Z,20.77
2018-11-28T11:18:38.015Z,18.80
2018-11-28T11:21:10.001Z,19.70
2018-11-28T11:23:39.836Z,20.33
2018-11-28T11:26:09.425Z,19.90
2018-11-28T11:28:38.072Z,20.07
2018-11-28T11:31:06.842Z,19.27
2018-11-28T11:33:35.430Z,21.03
2018-11-28T11:36:03.987Z,19.63
2018-11-28T11:38:32.646Z,20.27
2018-11-28T11:41:01.289Z,19.53
2018-11-28T11:43:30.113Z,20.27
2018-11-28T11:45:59.229Z,20.03
2018-11-28T11:48:27.935Z,19.73
2018-11-28T11:50:56.812Z,18.97
2018-11-28T11:53:25.667Z,20.07
2018-11-28T11:55:54.319Z,19.80
2018-11-28T11:58:23.191Z,19.97
2018-11-28T12:00:52.505Z,18.27
2018-11-28T12:03:21.649Z,19.40
2018-11-28T12:05:52.739Z,19.90
2018-11-28T12:08:21.945Z,19.20
2018-11-28T12:10:50.703Z,20.93
2018-11-28T12:13:19.610Z,20.10
2018-11-28T12:15:48.295Z,19.33
2018-11-28T12:18:17.338Z,19.30
2018-11-28T12:20:55.235Z,19.90
2018-11-28T12:23:23.920Z,19.63
2018-11-28T12:25:52.558Z,24.30
2018-11-28T12:28:21.190Z,20.23
2018-11-28T12:30:49.815Z,19.67
2018-11-28T12:33:18.388Z,19.70
2018-11-28T12:35:47.060Z,20.23
2018-11-28T12:38:15.723Z,20.47
2018-11-28T12:40:44.260Z,20.43
2018-11-28T12:43:12.874Z,20.53
2018-11-28T12:45:44.043Z,20.57
2018-11-28T12:48:12.678Z,18.87
2018-11-28T12:50:41.314Z,20.17
2018-11-28T12:53:11.387Z,18.97
2018-11-28T12:55:40.429Z,23.15
2018-11-28T12:58:16.309Z,19.27
2018-11-28T13:00:45.116Z,18.67
2018-11-28T13:03:15.084Z,18.43
2018-11-28T13:05:43.746Z,19.13
2018-11-28T13:08:12.554Z,18.47
2018-11-28T13:10:42.395Z,18.03
2018-11-28T13:13:12.121Z,18.30
2018-11-28T13:15:41.211Z,18.60
2018-11-28T13:18:10.702Z,18.77
2018-11-28T13:20:41.159Z,18.73
2018-11-28T13:23:10.992Z,19.03
2018-11-28T13:25:39.655Z,19.70
2018-11-28T13:28:08.511Z,19.10
2018-11-28T13:30:37.919Z,17.97
2018-11-28T13:35:59.610Z,18.27
2018-11-28T13:38:28.355Z,17.87
2018-11-28T13:40:57.012Z,18.03
2018-11-28T13:43:25.663Z,18.47
2018-11-28T13:45:54.348Z,17.77
2018-11-28T13:48:23.151Z,18.50
2018-11-28T13:50:51.824Z,18.30
2018-11-28T13:53:20.467Z,18.30
2018-11-28T13:56:57.447Z,17.50
2018-11-28T13:58:24.051Z,18.37
2018-11-28T14:00:52.715Z,17.70
2018-11-28T14:03:21.457Z,17.37
2018-11-28T14:05:50.201Z,19.23
2018-11-28T14:08:18.961Z,18.40
2018-11-28T14:10:47.716Z,18.03
2018-11-28T14:13:16.581Z,19.60
2018-11-28T14:15:45.250Z,17.13
2018-11-28T14:18:16.390Z,17.47
2018-11-28T14:20:45.086Z,17.90
2018-11-28T14:23:13.744Z,18.23
2018-11-28T14:25:50.782Z,16.77
2018-11-28T14:28:22.477Z,17.63
2018-11-28T14:30:51.191Z,17.70
2018-11-28T14:33:19.931Z,17.50
2018-11-28T14:35:48.570Z,18.10
2018-11-28T14:38:18.276Z,16.83
2018-11-28T14:40:48.682Z,17.93
2018-11-28T14:43:18.082Z,17.30
2018-11-28T14:45:48.474Z,17.80
2018-11-28T14:48:18.477Z,17.97
2018-11-28T14:50:47.171Z,18.17
2018-11-28T14:53:16.041Z,16.83
2018-11-28T14:55:46.446Z,18.43
2018-11-28T14:58:16.311Z,17.90
2018-11-28T15:00:45.193Z,18.53
2018-11-28T15:03:18.727Z,18.00
2018-11-28T15:05:56.524Z,17.17
2018-11-28T15:08:26.277Z,18.33
2018-11-28T15:11:01.704Z,18.27
2018-11-28T15:13:30.339Z,18.77
2018-11-28T15:15:59.012Z,20.70
2018-11-28T15:18:27.785Z,19.60
2018-11-28T15:20:56.422Z,18.33
2018-11-28T15:23:25.176Z,17.83
2018-11-28T15:25:53.862Z,17.80
2018-11-28T15:28:22.684Z,18.17
2018-11-28T15:30:51.351Z,16.17
2018-11-28T15:33:20.057Z,17.47
2018-11-28T15:35:48.703Z,17.20
2018-11-28T15:38:22.199Z,16.57
2018-11-28T15:40:51.109Z,16.40
2018-11-28T15:43:19.771Z,17.33
2018-11-28T15:45:48.482Z,16.50
2018-11-28T15:48:17.100Z,17.80
2018-11-28T15:50:46.553Z,16.83
2018-11-28T15:53:15.521Z,17.13
2018-11-28T15:55:44.235Z,16.50
2018-11-28T15:58:12.839Z,17.63
2018-11-28T16:00:41.627Z,18.63
2018-11-28T16:03:14.368Z,16.67
2018-11-28T16:05:43.077Z,17.33
2018-11-28T16:08:11.933Z,16.83
2018-11-28T16:10:42.546Z,16.53
2018-11-28T16:13:12.568Z,16.03
2018-11-28T16:15:46.061Z,16.87
2018-11-28T16:18:19.517Z,16.33
2018-11-28T16:20:55.882Z,17.53
2018-11-28T16:23:25.248Z,16.23
2018-11-28T16:25:54.364Z,16.33
2018-11-28T16:28:30.109Z,16.57
2018-11-28T16:33:50.508Z,16.47
2018-11-28T16:36:19.424Z,16.77
2018-11-28T16:38:48.033Z,16.83
2018-11-28T16:41:16.732Z,16.83
2018-11-28T16:43:45.582Z,20.02
2018-11-28T16:46:14.243Z,21.23
2018-11-28T16:48:42.929Z,18.03
2018-11-28T16:51:11.551Z,17.03
2018-11-28T16:53:40.603Z,17.07
2018-11-28T16:56:09.282Z,17.20
2018-11-28T16:58:37.885Z,17.03
2018-11-28T17:01:07.059Z,16.90
2018-11-28T17:03:35.659Z,16.63
2018-11-28T17:06:04.507Z,17.67
2018-11-28T17:08:33.161Z,16.93
2018-11-28T17:11:01.767Z,15.47
2018-11-28T17:13:30.408Z,17.10
2018-11-28T17:15:59.086Z,16.80
2018-11-28T17:18:27.693Z,16.70
2018-11-28T17:20:56.423Z,16.73
2018-11-28T17:23:25.068Z,16.93
2018-11-28T17:25:53.809Z,17.10
2018-11-28T17:28:22.486Z,16.93
2018-11-28T17:30:51.153Z,16.67
2018-11-28T17:33:19.755Z,17.50
2018-11-28T17:35:48.676Z,18.10
2018-11-28T17:51:26.074Z,16.47
2018-11-28T17:53:54.803Z,15.93
2018-11-28T17:56:23.698Z,17.23
2018-11-28T17:58:52.357Z,16.17
2018-11-28T18:01:21.082Z,17.80
2018-11-28T18:03:49.781Z,16.40
2018-11-28T18:06:18.463Z,17.27
2018-11-28T18:08:47.080Z,17.03
2018-11-28T18:11:17.144Z,15.57
2018-11-28T18:13:47.224Z,17.20
2018-11-28T18:16:15.997Z,16.47
2018-11-28T18:18:44.640Z,16.37
2018-11-28T18:21:13.221Z,15.87
2018-11-28T18:23:41.886Z,15.47
2018-11-28T18:26:12.287Z,16.27
2018-11-28T18:28:41.008Z,15.53
2018-11-28T18:31:09.689Z,14.83
2018-11-28T18:33:38.556Z,15.53
2018-11-28T18:36:07.326Z,15.80
2018-11-28T18:38:35.903Z,16.73
2018-11-28T18:41:04.949Z,15.93
2018-11-28T18:43:33.590Z,16.60
2018-11-28T18:46:02.435Z,15.43
2018-11-28T18:48:30.939Z,15.40
2018-11-28T18:50:59.587Z,17.65
2018-11-28T18:53:28.241Z,16.43
2018-11-28T18:55:56.891Z,17.47
2018-11-28T18:58:25.466Z,15.07
2018-11-28T19:00:54.150Z,16.07
2018-11-28T19:03:22.841Z,17.07
2018-11-28T19:05:51.530Z,15.47
2018-11-28T19:08:20.195Z,16.47
2018-11-28T19:10:48.903Z,15.27
2018-11-28T19:13:19.310Z,15.70
2018-11-28T19:15:48.980Z,15.53
2018-11-28T19:18:17.654Z,18.37
2018-11-28T19:20:46.329Z,15.97
2018-11-28T19:23:16.014Z,19.70
2018-11-28T19:25:49.787Z,17.03
2018-11-28T19:28:13.422Z,16.17
2018-11-28T19:30:42.293Z,15.97
2018-11-28T19:33:13.125Z,15.60
2018-11-28T19:35:41.846Z,16.20
2018-11-28T19:38:12.733Z,16.10
2018-11-28T19:40:49.735Z,16.33
2018-11-28T19:43:18.399Z,16.27
2018-11-28T19:45:47.047Z,15.73
2018-11-28T19:48:15.661Z,16.27
2018-11-28T19:50:44.224Z,15.07
2018-11-28T19:53:13.046Z,15.10
2018-11-28T19:55:42.700Z,16.83
2018-11-28T19:58:11.366Z,16.53
2018-11-28T20:00:42.807Z,16.50
2018-11-28T20:03:11.471Z,16.10
2018-11-28T20:05:40.174Z,16.30
2018-11-28T20:08:08.927Z,17.53
2018-11-28T20:10:37.599Z,15.23
2018-11-28T20:13:07.993Z,15.93
2018-11-28T20:15:36.894Z,16.77
2018-11-28T20:18:06.205Z,16.20
2018-11-28T20:20:35.549Z,16.67
2018-11-28T20:23:04.436Z,15.20
2018-11-28T20:25:33.201Z,17.73
2018-11-28T20:28:01.909Z,16.43
2018-11-28T20:30:34.266Z,17.23
2018-11-28T20:33:03.294Z,16.27
2018-11-28T20:35:32.341Z,15.93
2018-11-28T20:38:01.609Z,17.50
2018-11-28T20:40:30.400Z,16.37
2018-11-28T20:42:59.158Z,17.03
2018-11-28T20:45:28.129Z,16.33
2018-11-28T20:47:56.738Z,16.03
2018-11-28T20:50:29.688Z,15.50
2018-11-28T20:53:00.193Z,15.57
2018-11-28T20:55:29.467Z,16.10
2018-11-28T20:57:58.226Z,16.17
2018-11-28T21:00:27.674Z,15.53
2018-11-28T21:02:56.277Z,15.60
2018-11-28T21:05:25.439Z,15.77
2018-11-28T21:07:54.118Z,15.67
2018-11-28T21:10:28.417Z,16.30
2018-11-28T21:12:57.072Z,17.77
2018-11-28T21:15:25.691Z,16.30
2018-11-28T21:17:54.292Z,16.57
2018-11-28T21:20:23.325Z,16.47
2018-11-28T21:22:58.044Z,16.67
2018-11-28T21:25:26.750Z,14.93
2018-11-28T21:27:55.522Z,15.03
2018-11-28T21:30:24.107Z,15.73
2018-11-28T21:32:53.751Z,15.70
2018-11-28T21:35:31.340Z,16.13
2018-11-28T21:37:59.944Z,16.00
2018-11-28T21:40:28.589Z,14.70
2018-11-28T21:42:57.318Z,15.73
2018-11-28T21:45:26.396Z,15.80
2018-11-28T21:47:55.127Z,13.93
2018-11-28T21:50:23.820Z,15.53
2018-11-28T21:52:52.380Z,14.47
2018-11-28T21:55:22.067Z,14.60
2018-11-28T21:57:50.720Z,14.27
2018-11-28T22:00:20.391Z,15.37
2018-11-28T22:02:49.011Z,15.53
2018-11-28T22:05:17.987Z,15.60
2018-11-28T22:07:46.808Z,13.70
2018-11-28T22:10:16.545Z,14.63
2018-11-28T22:12:45.534Z,16.07
2018-11-28T22:15:15.121Z,15.63
2018-11-28T22:17:45.019Z,15.37
2018-11-28T22:20:14.557Z,14.83
2018-11-28T22:22:43.254Z,14.63
2018-11-28T22:25:13.204Z,14.57
2018-11-28T22:27:41.978Z,15.63
2018-11-28T22:30:17.586Z,15.47
2018-11-28T22:32:46.193Z,15.13
2018-11-28T22:35:14.913Z,15.03
2018-11-28T22:37:43.506Z,15.57
2018-11-28T22:40:22.581Z,14.70
2018-11-28T22:42:51.184Z,15.60
2018-11-28T22:45:21.065Z,15.37
2018-11-28T22:47:49.662Z,14.63
2018-11-28T22:50:18.283Z,15.53
2018-11-28T22:52:46.935Z,15.13
2018-11-28T22:55:17.343Z,14.53
2018-11-28T22:57:46.019Z,15.80
2018-11-28T23:00:16.817Z,15.07
2018-11-28T23:02:52.614Z,15.47
2018-11-28T23:05:22.329Z,15.63
2018-11-28T23:07:50.983Z,15.70
2018-11-28T23:10:19.572Z,14.73
2018-11-28T23:12:48.152Z,15.43
2018-11-28T23:15:16.823Z,14.90
2018-11-28T23:17:45.487Z,15.77
2018-11-28T23:20:14.174Z,14.57
2018-11-28T23:22:42.888Z,15.17
2018-11-28T23:25:12.321Z,15.53
2018-11-28T23:27:41.020Z,15.43
2018-11-28T23:30:14.705Z,16.50
2018-11-28T23:32:43.347Z,16.23
2018-11-28T23:35:12.332Z,16.07
2018-11-28T23:37:41.770Z,16.47
2018-11-28T23:40:13.650Z,17.27
2018-11-28T23:42:42.309Z,16.23
2018-11-28T23:45:11.899Z,16.50
2018-11-28T23:47:40.939Z,16.60
2018-11-28T23:50:15.648Z,16.53
2018-11-28T23:52:44.632Z,16.70
2018-11-28T23:55:17.346Z,17.77
2018-11-28T23:57:46.003Z,17.03
